createdAt,value
2024-02-03T00:00:34.153Z,3.50
2024-02-03T00:03:01.011Z,3.95
2024-02-03T00:05:28.551Z,3.42
2024-02-03T00:07:55.323Z,3.03
2024-02-03T00:10:22.216Z,3.30
2024-02-03T00:12:49.493Z,3.10
2024-02-03T00:15:17.218Z,2.33
2024-02-03T00:17:44.232Z,3.00
2024-02-03T00:20:11.987Z,2.47
2024-02-03T00:22:39.166Z,3.70
2024-02-03T00:25:06.380Z,3.53
2024-02-03T00:27:33.152Z,2.90
2024-02-03T00:30:00.090Z,3.25
2024-02-03T00:32:27.122Z,2.95
2024-02-03T00:34:54.376Z,3.10
2024-02-03T00:37:21.903Z,3.10
2024-02-03T00:39:48.856Z,2.78
2024-02-03T00:42:15.770Z,2.70
2024-02-03T00:44:42.770Z,3.28
2024-02-03T00:47:09.574Z,4.50
2024-02-03T00:49:36.686Z,3.38
2024-02-03T00:52:03.846Z,3.17
2024-02-03T00:54:30.693Z,3.22
2024-02-03T00:56:58.248Z,2.90
2024-02-03T00:59:25.268Z,2.83
2024-02-03T01:01:52.466Z,3.10
2024-02-03T01:04:19.763Z,2.88
2024-02-03T01:06:46.695Z,2.85
2024-02-03T01:09:18.212Z,2.53
2024-02-03T01:11:45.172Z,2.45
2024-02-03T01:14:12.265Z,3.00
2024-02-03T01:16:39.475Z,3.00
2024-02-03T01:19:06.510Z,2.28
2024-02-03T01:21:33.467Z,2.83
2024-02-03T01:24:00.350Z,2.40
2024-02-03T01:26:27.202Z,3.13
2024-02-03T01:28:54.252Z,2.70
2024-02-03T01:31:21.145Z,2.25
2024-02-03T01:33:48.673Z,2.25
2024-02-03T01:36:15.614Z,2.25
2024-02-03T01:38:45.306Z,2.72
2024-02-03T01:41:12.104Z,3.40
2024-02-03T01:43:38.987Z,3.58
2024-02-03T01:46:05.845Z,2.65
2024-02-03T01:48:34.526Z,2.63
2024-02-03T01:51:01.516Z,3.03
2024-02-03T01:53:28.354Z,2.45
2024-02-03T01:55:55.103Z,2.33
2024-02-03T01:58:22.004Z,1.88
2024-02-03T02:00:48.994Z,1.88
2024-02-03T02:03:16.149Z,2.15
2024-02-03T02:05:43.619Z,2.13
2024-02-03T02:08:10.820Z,2.15
2024-02-03T02:10:39.980Z,2.25
2024-02-03T02:13:06.915Z,2.33
2024-02-03T02:15:34.018Z,2.00
2024-02-03T02:18:01.342Z,2.30
2024-02-03T02:20:28.397Z,2.83
2024-02-03T02:22:55.315Z,2.05
2024-02-03T02:25:22.261Z,2.42
2024-02-03T02:27:51.802Z,2.00
2024-02-03T02:30:20.697Z,2.50
2024-02-03T02:32:47.642Z,2.58
2024-02-03T02:35:14.591Z,3.22
2024-02-03T02:37:41.574Z,2.45
2024-02-03T02:40:10.050Z,4.93
2024-02-03T02:42:37.277Z,3.33
2024-02-03T02:45:04.629Z,2.20
2024-02-03T02:47:31.933Z,2.08
2024-02-03T02:49:59.083Z,1.92
2024-02-03T02:52:26.080Z,1.30
2024-02-03T02:54:53.381Z,1.77
2024-02-03T02:57:20.338Z,1.80
2024-02-03T02:59:47.161Z,2.33
2024-02-03T03:02:14.055Z,2.00
2024-02-03T03:04:40.995Z,2.65
2024-02-03T03:07:07.794Z,2.55
2024-02-03T03:09:34.662Z,14.88
2024-02-03T03:12:01.535Z,2.65
2024-02-03T03:14:28.379Z,3.47
2024-02-03T03:16:55.584Z,2.30
2024-02-03T03:19:22.452Z,3.53
2024-02-03T03:21:49.499Z,3.38
2024-02-03T03:24:16.336Z,2.17
2024-02-03T03:26:43.982Z,1.30
2024-02-03T03:29:16.198Z,2.95
2024-02-03T03:31:43.890Z,1.98
2024-02-03T03:34:11.265Z,1.63
2024-02-03T03:36:38.621Z,1.67
2024-02-03T03:39:05.713Z,1.50
2024-02-03T03:41:32.565Z,1.98
2024-02-03T03:43:59.305Z,2.10
2024-02-03T03:46:26.166Z,1.90
2024-02-03T03:48:53.246Z,1.42
2024-02-03T03:51:20.944Z,1.92
2024-02-03T03:53:47.762Z,1.75
2024-02-03T03:56:14.540Z,2.00
2024-02-03T03:58:41.458Z,2.28
2024-02-03T04:01:11.694Z,1.98
2024-02-03T04:03:38.666Z,2.38
2024-02-03T04:06:05.716Z,3.53
2024-02-03T04:08:32.592Z,3.35
2024-02-03T04:10:59.644Z,2.30
2024-02-03T04:13:26.958Z,3.55
2024-02-03T04:15:54.726Z,2.13
2024-02-03T04:18:21.807Z,1.55
2024-02-03T04:20:48.761Z,2.22
2024-02-03T04:23:15.608Z,1.50
2024-02-03T04:25:42.514Z,2.00
2024-02-03T04:28:09.363Z,5.28
2024-02-03T04:30:36.166Z,7.88
2024-02-03T04:33:03.260Z,2.72
2024-02-03T04:35:32.330Z,2.42
2024-02-03T04:38:03.991Z,1.73
2024-02-03T04:40:31.137Z,2.03
2024-02-03T04:42:57.975Z,1.83
2024-02-03T04:45:24.945Z,3.65
2024-02-03T04:47:51.997Z,2.90
2024-02-03T04:50:18.995Z,2.75
2024-02-03T04:52:45.943Z,3.03
2024-02-03T04:55:12.745Z,3.40
2024-02-03T04:57:39.695Z,4.28
2024-02-03T05:00:07.602Z,4.25
2024-02-03T05:02:34.417Z,6.25
2024-02-03T05:05:01.365Z,6.25
2024-02-03T05:07:28.196Z,6.82
2024-02-03T05:09:55.112Z,5.93
2024-02-03T05:12:22.020Z,5.03
2024-02-03T05:14:48.826Z,5.40
2024-02-03T05:17:15.680Z,4.38
2024-02-03T05:19:42.734Z,5.43
2024-02-03T05:22:09.636Z,5.85
2024-02-03T05:24:36.609Z,4.75
2024-02-03T05:27:03.565Z,5.90
2024-02-03T05:29:30.369Z,8.35
2024-02-03T05:31:57.261Z,9.88
2024-02-03T05:34:24.109Z,8.00
2024-02-03T05:36:51.092Z,7.53
2024-02-03T05:39:18.512Z,5.55
2024-02-03T05:41:45.335Z,6.88
2024-02-03T05:44:12.195Z,7.68
2024-02-03T05:46:39.016Z,6.47
2024-02-03T05:49:06.069Z,6.80
2024-02-03T05:51:33.232Z,9.30
2024-02-03T05:54:00.119Z,7.80
2024-02-03T05:56:27.003Z,9.60
2024-02-03T05:59:08.015Z,11.02
2024-02-03T06:01:40.723Z,12.32
2024-02-03T06:04:09.544Z,12.70
2024-02-03T06:06:36.872Z,19.48
2024-02-03T06:09:04.582Z,18.13
2024-02-03T06:11:34.351Z,19.42
2024-02-03T06:14:01.077Z,14.40
2024-02-03T06:16:27.969Z,17.85
2024-02-03T06:18:54.914Z,18.70
2024-02-03T06:21:21.880Z,20.45
2024-02-03T06:23:48.684Z,18.02
2024-02-03T06:26:15.646Z,16.38
2024-02-03T06:28:42.551Z,12.57
2024-02-03T06:31:09.392Z,10.00
2024-02-03T06:33:36.398Z,10.30
2024-02-03T06:36:03.441Z,9.38
2024-02-03T06:38:30.284Z,8.07
2024-02-03T06:40:57.280Z,9.98
2024-02-03T06:43:26.922Z,8.93
2024-02-03T06:45:55.152Z,9.77
2024-02-03T06:48:22.258Z,9.48
2024-02-03T06:50:50.522Z,10.02
2024-02-03T06:53:17.389Z,10.70
2024-02-03T06:55:44.187Z,7.32
2024-02-03T06:58:11.122Z,13.57
2024-02-03T07:00:38.231Z,18.27
2024-02-03T07:03:05.530Z,6.28
2024-02-03T07:05:32.470Z,3.50
2024-02-03T07:07:59.766Z,4.93
2024-02-03T07:10:26.844Z,5.10
2024-02-03T07:12:53.875Z,9.77
2024-02-03T07:15:21.977Z,9.23
2024-02-03T07:17:49.802Z,13.93
2024-02-03T07:20:16.759Z,9.00
2024-02-03T07:22:43.602Z,20.17
2024-02-03T07:25:12.860Z,14.02
2024-02-03T07:27:39.768Z,11.30
2024-02-03T07:30:07.366Z,9.95
2024-02-03T07:32:34.384Z,9.63
2024-02-03T07:35:02.321Z,6.50
2024-02-03T07:37:29.371Z,6.60
2024-02-03T07:39:56.273Z,7.93
2024-02-03T07:42:23.225Z,9.57
2024-02-03T07:44:49.987Z,10.10
2024-02-03T07:47:16.882Z,10.10
2024-02-03T07:49:44.259Z,9.23
2024-02-03T07:52:11.282Z,9.02
2024-02-03T07:54:38.336Z,8.02
2024-02-03T07:57:05.439Z,8.40
2024-02-03T07:59:32.548Z,7.72
2024-02-03T08:01:59.706Z,7.05
2024-02-03T08:04:26.659Z,6.72
2024-02-03T08:06:53.644Z,5.70
2024-02-03T08:09:20.497Z,6.43
2024-02-03T08:11:47.499Z,8.05
2024-02-03T08:14:14.817Z,7.60
2024-02-03T08:16:41.778Z,8.13
2024-02-03T08:19:08.874Z,6.72
2024-02-03T08:21:38.203Z,6.38
2024-02-03T08:24:06.197Z,6.05
2024-02-03T08:26:33.236Z,4.72
2024-02-03T08:29:00.041Z,4.13
2024-02-03T08:31:28.359Z,5.85
2024-02-03T08:33:57.239Z,5.15
2024-02-03T08:36:24.425Z,6.47
2024-02-03T08:38:51.237Z,5.88
2024-02-03T08:41:18.161Z,8.00
2024-02-03T08:43:45.009Z,7.30
2024-02-03T08:46:11.824Z,7.75
2024-02-03T08:48:38.736Z,6.45
2024-02-03T08:51:05.926Z,5.65
2024-02-03T08:53:33.969Z,5.97
2024-02-03T08:56:00.956Z,3.83
2024-02-03T08:58:29.297Z,5.32
2024-02-03T09:00:57.308Z,5.25
2024-02-03T09:03:24.185Z,5.18
2024-02-03T09:05:51.019Z,5.93
2024-02-03T09:08:17.941Z,4.28
2024-02-03T09:10:44.814Z,4.45
2024-02-03T09:13:11.679Z,5.18
2024-02-03T09:15:38.586Z,4.53
2024-02-03T09:18:06.208Z,4.30
2024-02-03T09:20:33.424Z,2.88
2024-02-03T09:23:00.273Z,2.72
2024-02-03T09:25:27.324Z,2.70
2024-02-03T09:27:54.075Z,4.28
2024-02-03T09:30:21.826Z,4.88
2024-02-03T09:32:49.915Z,4.30
2024-02-03T09:35:16.909Z,4.03
2024-02-03T09:40:23.620Z,1.85
2024-02-03T09:42:50.809Z,2.28
2024-02-03T09:45:17.831Z,1.65
2024-02-03T09:47:44.978Z,1.40
2024-02-03T09:50:11.935Z,1.40
2024-02-03T09:52:38.776Z,1.40
2024-02-03T09:55:06.909Z,2.08
2024-02-03T09:57:34.152Z,2.10
2024-02-03T10:00:01.362Z,3.22
2024-02-03T10:02:28.878Z,1.42
2024-02-03T10:04:56.659Z,2.80
2024-02-03T10:07:23.587Z,1.88
2024-02-03T10:12:23.593Z,1.33
2024-02-03T10:15:04.086Z,1.30
2024-02-03T10:17:30.992Z,1.65
2024-02-03T10:19:58.190Z,2.13
2024-02-03T10:22:25.205Z,2.50
2024-02-03T10:24:51.984Z,1.40
2024-02-03T10:27:24.290Z,3.28
2024-02-03T10:29:55.716Z,2.38
2024-02-03T10:32:23.987Z,1.70
2024-02-03T10:34:54.862Z,2.00
2024-02-03T10:37:21.778Z,0.95
2024-02-03T10:39:48.878Z,0.77
2024-02-03T10:42:22.977Z,1.30
2024-02-03T10:44:50.996Z,2.00
2024-02-03T10:47:22.743Z,1.45
2024-02-03T10:49:50.326Z,1.88
2024-02-03T10:52:18.001Z,1.80
2024-02-03T10:54:46.311Z,1.83
2024-02-03T10:57:14.128Z,0.80
2024-02-03T10:59:41.471Z,1.83
2024-02-03T11:02:19.958Z,0.80
2024-02-03T11:04:51.335Z,0.98
2024-02-03T11:07:25.482Z,1.58
2024-02-03T11:09:55.312Z,1.98
2024-02-03T11:12:22.430Z,3.20
2024-02-03T11:14:49.718Z,2.08
2024-02-03T11:17:16.652Z,1.45
2024-02-03T11:19:46.083Z,2.55
2024-02-03T11:22:16.052Z,3.13
2024-02-03T11:24:44.255Z,3.00
2024-02-03T11:27:11.338Z,2.20
2024-02-03T11:29:40.992Z,2.15
2024-02-03T11:32:08.517Z,2.97
2024-02-03T11:34:36.994Z,2.47
2024-02-03T11:42:06.898Z,2.30
2024-02-03T11:44:55.494Z,3.10
2024-02-03T11:47:23.339Z,2.28
2024-02-03T11:49:54.021Z,2.55
2024-02-03T11:52:25.423Z,1.25
2024-02-03T11:54:53.229Z,1.40
2024-02-03T11:57:21.088Z,1.70
2024-02-03T11:59:47.875Z,1.80
2024-02-03T12:02:18.132Z,0.57
2024-02-03T12:04:45.469Z,2.08
2024-02-03T12:07:12.382Z,1.67
2024-02-03T12:09:39.352Z,2.85
2024-02-03T12:12:06.807Z,2.53
2024-02-03T12:14:33.596Z,1.95
2024-02-03T12:17:00.619Z,1.67
2024-02-03T12:19:29.041Z,1.20
2024-02-03T12:24:23.538Z,0.88
2024-02-03T12:26:50.405Z,1.40
2024-02-03T12:29:18.240Z,2.10
2024-02-03T12:31:45.033Z,1.52
2024-02-03T12:34:11.943Z,1.27
2024-02-03T12:36:38.943Z,1.88
2024-02-03T12:39:05.784Z,2.03
2024-02-03T12:41:32.747Z,1.30
2024-02-03T12:43:59.642Z,1.75
2024-02-03T12:46:27.311Z,1.40
2024-02-03T12:48:54.262Z,2.97
2024-02-03T12:51:21.293Z,2.63
2024-02-03T12:53:48.196Z,2.17
2024-02-03T12:56:15.960Z,2.65
2024-02-03T12:58:43.970Z,3.08
2024-02-03T13:01:14.612Z,0.98
2024-02-03T13:03:41.728Z,0.60
2024-02-03T13:06:08.707Z,0.95
2024-02-03T13:08:35.563Z,0.93
2024-02-03T13:11:03.110Z,1.40
2024-02-03T13:13:29.904Z,1.75
2024-02-03T13:15:56.825Z,1.35
2024-02-03T13:18:23.691Z,2.00
2024-02-03T13:20:50.548Z,2.53
2024-02-03T13:23:17.472Z,1.80
2024-02-03T13:25:44.389Z,2.22
2024-02-03T13:28:11.215Z,1.40
2024-02-03T13:30:38.139Z,1.45
2024-02-03T13:33:05.449Z,1.83
2024-02-03T13:35:32.436Z,1.42
2024-02-03T13:38:00.019Z,0.57
2024-02-03T13:40:27.031Z,1.27
2024-02-03T13:42:54.391Z,2.92
2024-02-03T13:45:21.543Z,3.20
2024-02-03T13:47:51.048Z,2.00
2024-02-03T13:50:19.783Z,1.77
2024-02-03T13:52:46.921Z,0.90
2024-02-03T13:55:14.189Z,0.88
2024-02-03T13:57:41.269Z,3.40
2024-02-03T14:00:09.096Z,2.78
2024-02-03T14:02:38.580Z,1.88
2024-02-03T14:05:06.265Z,0.40
2024-02-03T14:07:33.248Z,1.88
2024-02-03T14:10:03.681Z,1.95
2024-02-03T14:12:31.974Z,3.85
2024-02-03T14:14:59.039Z,1.85
2024-02-03T14:17:25.849Z,1.30
2024-02-03T14:19:52.813Z,2.03
2024-02-03T14:22:19.670Z,4.10
2024-02-03T14:24:46.584Z,3.17
2024-02-03T14:27:14.079Z,1.88
2024-02-03T14:29:41.280Z,1.95
2024-02-03T14:32:12.999Z,4.93
2024-02-03T14:34:40.108Z,3.35
2024-02-03T14:37:09.708Z,1.60
2024-02-03T14:39:36.490Z,3.10
2024-02-03T14:42:06.010Z,2.03
2024-02-03T14:44:35.669Z,1.65
2024-02-03T14:47:02.725Z,6.35
2024-02-03T14:49:29.787Z,5.57
2024-02-03T14:51:56.694Z,3.17
2024-02-03T14:54:23.623Z,3.50
2024-02-03T14:56:51.361Z,3.72
2024-02-03T14:59:18.218Z,2.90
2024-02-03T15:01:45.156Z,0.90
2024-02-03T15:04:12.079Z,3.72
2024-02-03T15:06:39.695Z,4.97
2024-02-03T15:09:09.327Z,7.82
2024-02-03T15:11:36.899Z,1.60
2024-02-03T15:14:03.777Z,0.93
2024-02-03T15:16:30.894Z,0.70
2024-02-03T15:18:57.968Z,1.30
2024-02-03T15:21:25.009Z,3.78
2024-02-03T15:23:51.933Z,5.90
2024-02-03T15:26:18.727Z,7.20
2024-02-03T15:28:45.516Z,2.90
2024-02-03T15:31:12.322Z,1.83
2024-02-03T15:33:39.885Z,2.97
2024-02-03T15:36:07.579Z,11.40
2024-02-03T15:38:34.469Z,19.48
2024-02-03T15:41:01.413Z,6.57
2024-02-03T15:43:28.271Z,4.80
2024-02-03T15:45:55.136Z,7.57
2024-02-03T15:48:23.072Z,16.73
2024-02-03T15:50:49.976Z,8.32
2024-02-03T15:53:16.800Z,8.82
2024-02-03T15:55:43.672Z,10.63
2024-02-03T15:58:11.259Z,4.88
2024-02-03T16:00:38.398Z,5.57
2024-02-03T16:03:08.478Z,5.70
2024-02-03T16:05:35.522Z,7.10
2024-02-03T16:08:02.480Z,9.70
2024-02-03T16:10:29.397Z,8.57
2024-02-03T16:12:56.363Z,11.32
2024-02-03T16:15:23.509Z,8.90
2024-02-03T16:17:50.508Z,7.95
2024-02-03T16:20:17.601Z,2.97
2024-02-03T16:22:45.653Z,2.17
2024-02-03T16:25:12.864Z,3.75
2024-02-03T16:27:42.783Z,5.28
2024-02-03T16:30:12.045Z,4.63
2024-02-03T16:32:39.058Z,53.67
2024-02-03T16:35:06.770Z,15.52
2024-02-03T16:37:34.024Z,17.58
2024-02-03T16:40:00.967Z,15.48
2024-02-03T16:42:27.863Z,14.48
2024-02-03T16:44:54.636Z,19.15
2024-02-03T16:47:21.486Z,18.83
2024-02-03T16:49:48.412Z,17.13
2024-02-03T16:52:16.098Z,26.58
2024-02-03T16:54:42.987Z,14.57
2024-02-03T16:57:11.106Z,13.55
2024-02-03T16:59:38.714Z,14.70
2024-02-03T17:02:06.094Z,16.95
2024-02-03T17:04:33.188Z,15.73
2024-02-03T17:07:01.584Z,12.45
2024-02-03T17:09:28.461Z,22.45
2024-02-03T17:11:55.340Z,15.55
2024-02-03T17:14:22.239Z,19.55
2024-02-03T17:16:49.206Z,19.88
2024-02-03T17:19:16.665Z,22.00
2024-02-03T17:21:44.091Z,16.83
2024-02-03T17:24:11.191Z,5.35
2024-02-03T17:26:38.110Z,25.08
2024-02-03T17:29:04.969Z,14.25
2024-02-03T17:31:32.069Z,27.58
2024-02-03T17:33:59.086Z,7.45
2024-02-03T17:36:25.957Z,7.43
2024-02-03T17:38:54.252Z,9.55
2024-02-03T17:41:21.121Z,8.25
2024-02-03T17:43:47.904Z,9.85
2024-02-03T17:46:17.999Z,3.63
2024-02-03T17:48:45.180Z,9.20
2024-02-03T17:51:13.082Z,6.38
2024-02-03T17:53:40.746Z,4.97
2024-02-03T17:56:08.214Z,2.13
2024-02-03T17:58:35.298Z,2.50
2024-02-03T18:01:02.369Z,3.88
2024-02-03T18:03:29.448Z,3.85
2024-02-03T18:05:56.555Z,5.13
2024-02-03T18:08:23.379Z,5.60
2024-02-03T18:10:51.661Z,5.00
2024-02-03T18:13:18.634Z,9.52
2024-02-03T18:15:45.434Z,9.88
2024-02-03T18:18:12.483Z,11.00
2024-02-03T18:20:39.404Z,4.20
2024-02-03T18:23:06.181Z,2.72
2024-02-03T18:25:32.985Z,1.60
2024-02-03T18:28:00.111Z,6.10
2024-02-03T18:30:27.281Z,16.73
2024-02-03T18:32:54.445Z,21.40
2024-02-03T18:35:21.332Z,21.58
2024-02-03T18:37:48.178Z,20.98
2024-02-03T18:40:15.159Z,24.98
2024-02-03T18:42:44.325Z,25.67
2024-02-03T18:45:13.214Z,23.83
2024-02-03T18:47:40.927Z,23.58
2024-02-03T18:50:08.791Z,29.88
2024-02-03T18:52:35.674Z,32.35
2024-02-03T18:55:02.674Z,33.63
2024-02-03T18:57:30.628Z,24.42
2024-02-03T18:59:57.445Z,22.48
2024-02-03T19:02:24.394Z,19.00
2024-02-03T19:04:51.376Z,11.07
2024-02-03T19:07:18.284Z,21.38
2024-02-03T19:09:45.315Z,25.95
2024-02-03T19:12:12.167Z,21.08
2024-02-03T19:14:39.063Z,20.23
2024-02-03T19:17:06.161Z,21.67
2024-02-03T19:19:33.259Z,22.58
2024-02-03T19:22:00.464Z,24.88
2024-02-03T19:24:27.538Z,21.63
2024-02-03T19:26:54.353Z,18.58
2024-02-03T19:29:21.202Z,14.57
2024-02-03T19:31:47.988Z,12.60
2024-02-03T19:34:15.151Z,22.35
2024-02-03T19:36:42.226Z,20.48
2024-02-03T19:39:10.385Z,19.83
2024-02-03T19:41:38.603Z,19.75
2024-02-03T19:44:05.647Z,16.38
2024-02-03T19:46:32.669Z,16.73
2024-02-03T19:48:59.795Z,20.38
2024-02-03T19:51:26.954Z,19.17
2024-02-03T19:53:53.758Z,22.70
2024-02-03T19:56:20.565Z,19.05
2024-02-03T19:58:47.476Z,21.60
2024-02-03T20:01:15.720Z,19.83
2024-02-03T20:03:49.416Z,21.05
2024-02-03T20:06:17.498Z,26.05
2024-02-03T20:08:44.655Z,25.67
2024-02-03T20:11:14.149Z,36.42
2024-02-03T20:13:41.635Z,26.50
2024-02-03T20:16:09.293Z,30.27
2024-02-03T20:18:36.445Z,26.02
2024-02-03T20:21:03.354Z,27.52
2024-02-03T20:23:30.387Z,55.10
2024-02-03T20:25:57.275Z,29.90
2024-02-03T20:28:25.210Z,31.52
2024-02-03T20:30:53.351Z,35.92
2024-02-03T20:33:20.975Z,26.38
2024-02-03T20:35:48.343Z,27.17
2024-02-03T20:38:15.258Z,28.13
2024-02-03T20:40:44.704Z,28.23
2024-02-03T20:43:15.022Z,28.33
2024-02-03T20:45:43.946Z,26.48
2024-02-03T20:48:11.110Z,19.90
2024-02-03T20:50:38.136Z,28.15
2024-02-03T20:53:06.011Z,29.77
2024-02-03T20:55:32.960Z,39.67
2024-02-03T20:58:00.687Z,39.50
2024-02-03T21:00:27.870Z,30.00
2024-02-03T21:02:54.943Z,28.13
2024-02-03T21:05:22.081Z,28.23
2024-02-03T21:07:51.761Z,16.17
2024-02-03T21:10:18.832Z,15.25
2024-02-03T21:12:45.973Z,17.02
2024-02-03T21:15:12.885Z,24.98
2024-02-03T21:17:39.778Z,21.85
2024-02-03T21:20:07.389Z,24.08
2024-02-03T21:22:34.801Z,25.65
2024-02-03T21:25:01.707Z,19.52
2024-02-03T21:27:28.572Z,22.25
2024-02-03T21:29:55.420Z,23.65
2024-02-03T21:32:22.276Z,22.30
2024-02-03T21:34:49.134Z,21.70
2024-02-03T21:37:16.987Z,23.73
2024-02-03T21:39:45.000Z,24.25
2024-02-03T21:42:12.303Z,18.15
2024-02-03T21:44:39.683Z,20.45
2024-02-03T21:47:06.723Z,22.08
2024-02-03T21:49:33.673Z,32.80
2024-02-03T21:52:00.657Z,35.60
2024-02-03T21:54:27.644Z,33.95
2024-02-03T21:56:54.462Z,24.80
2024-02-03T21:59:21.254Z,28.10
2024-02-03T22:01:48.218Z,28.25
2024-02-03T22:04:16.424Z,24.33
2024-02-03T22:06:43.590Z,23.23
2024-02-03T22:09:17.337Z,23.45
2024-02-03T22:11:47.693Z,16.55
2024-02-03T22:14:14.678Z,13.02
2024-02-03T22:16:42.511Z,11.32
2024-02-03T22:19:09.670Z,23.17
2024-02-03T22:21:36.714Z,23.27
2024-02-03T22:24:03.775Z,15.45
2024-02-03T22:26:30.610Z,18.10
2024-02-03T22:28:57.434Z,10.63
2024-02-03T22:31:24.286Z,13.45
2024-02-03T22:33:51.197Z,12.25
2024-02-03T22:36:18.072Z,16.38
2024-02-03T22:38:44.906Z,10.77
2024-02-03T22:41:11.792Z,13.95
2024-02-03T22:43:38.646Z,13.02
2024-02-03T22:46:05.669Z,12.95
2024-02-03T22:48:32.730Z,14.07
2024-02-03T22:50:59.652Z,11.48
2024-02-03T22:53:26.473Z,10.15
2024-02-03T22:55:55.385Z,8.05
2024-02-03T22:58:22.421Z,6.68
2024-02-03T23:00:51.189Z,10.25
2024-02-03T23:03:18.416Z,9.80
2024-02-03T23:05:45.502Z,9.57
2024-02-03T23:08:12.503Z,10.05
2024-02-03T23:10:39.306Z,8.20
2024-02-03T23:13:06.304Z,9.38
2024-02-03T23:15:34.004Z,7.63
2024-02-03T23:18:01.589Z,8.55
2024-02-03T23:20:28.574Z,8.75
2024-02-03T23:22:55.405Z,7.85
2024-02-03T23:25:23.417Z,10.13
2024-02-03T23:27:50.282Z,10.10
2024-02-03T23:30:17.267Z,11.40
2024-02-03T23:32:44.446Z,21.35
2024-02-03T23:35:11.397Z,16.95
2024-02-03T23:37:38.223Z,37.88
2024-02-03T23:40:10.999Z,17.40
2024-02-03T23:42:37.940Z,19.23
2024-02-03T23:45:05.374Z,23.08
2024-02-03T23:47:32.264Z,13.15
2024-02-03T23:49:59.332Z,19.23
2024-02-03T23:52:26.703Z,20.33
2024-02-03T23:54:53.749Z,15.77
2024-02-03T23:57:20.779Z,10.60
2024-02-03T23:59:47.582Z,10.80
